createdAt,value
2017-05-05T00:00:00.911Z,76.88
2017-05-05T00:01:00.907Z,77.26
2017-05-05T00:02:00.895Z,76.98
2017-05-05T00:03:00.889Z,76.79
2017-05-05T00:04:00.882Z,77.45
2017-05-05T00:05:00.869Z,77.26
2017-05-05T00:06:00.862Z,77.55
2017-05-05T00:07:00.853Z,77.17
2017-05-05T00:08:00.845Z,77.17
2017-05-05T00:09:00.836Z,77.36
2017-05-05T00:10:00.830Z,77.26
2017-05-05T00:11:00.821Z,77.36
2017-05-05T00:12:00.813Z,77.55
2017-05-05T00:13:00.803Z,77.64
2017-05-05T00:14:00.802Z,77.36
2017-05-05T00:15:00.788Z,77.07
2017-05-05T00:16:00.779Z,77.45
2017-05-05T00:17:00.778Z,77.36
2017-05-05T00:18:00.763Z,76.88
2017-05-05T00:19:00.760Z,77.36
2017-05-05T00:20:00.747Z,77.17
2017-05-05T00:21:00.738Z,76.98
2017-05-05T00:22:00.734Z,77.36
2017-05-05T00:23:00.744Z,77.36
2017-05-05T00:24:00.714Z,77.55
2017-05-05T00:25:00.706Z,77.26
2017-05-05T00:26:00.698Z,77.36
2017-05-05T00:27:00.388Z,77.36
2017-05-05T00:28:00.681Z,77.26
2017-05-05T00:29:00.674Z,77.55
2017-05-05T00:30:00.666Z,77.36
2017-05-05T00:31:00.654Z,76.98
2017-05-05T00:32:00.648Z,76.88
2017-05-05T00:33:00.641Z,76.98
2017-05-05T00:34:00.633Z,77.07
2017-05-05T00:35:00.625Z,76.88
2017-05-05T00:36:00.617Z,76.98
2017-05-05T00:37:00.608Z,76.79
2017-05-05T00:38:00.598Z,77.26
2017-05-05T00:39:00.590Z,76.59
2017-05-05T00:40:00.581Z,76.79
2017-05-05T00:41:00.572Z,76.59
2017-05-05T00:42:00.570Z,76.98
2017-05-05T00:43:00.560Z,76.79
2017-05-05T00:44:00.548Z,76.98
2017-05-05T00:45:00.538Z,77.17
2017-05-05T00:46:00.536Z,77.45
2017-05-05T00:47:00.522Z,77.36
2017-05-05T00:48:00.518Z,77.45
2017-05-05T00:49:00.506Z,77.55
2017-05-05T00:50:00.506Z,77.45
2017-05-05T00:51:00.491Z,77.26
2017-05-05T00:52:00.480Z,77.26
2017-05-05T00:53:00.476Z,77.64
2017-05-05T00:54:00.467Z,77.55
2017-05-05T00:55:00.461Z,77.26
2017-05-05T00:56:00.448Z,77.36
2017-05-05T00:57:00.442Z,77.36
2017-05-05T00:58:00.434Z,77.17
2017-05-05T00:59:00.428Z,76.88
2017-05-05T01:00:00.428Z,76.88
2017-05-05T01:01:00.409Z,76.88
2017-05-05T01:02:00.403Z,77.17
2017-05-05T01:03:00.393Z,77.36
2017-05-05T01:04:00.387Z,77.36
2017-05-05T01:05:00.376Z,77.64
2017-05-05T01:06:00.368Z,77.36
2017-05-05T01:07:00.361Z,77.36
2017-05-05T01:08:00.352Z,76.98
2017-05-05T01:09:00.350Z,76.98
2017-05-05T01:10:00.336Z,76.88
2017-05-05T01:11:00.327Z,77.07
2017-05-05T01:12:00.320Z,76.79
2017-05-05T01:13:00.312Z,77.07
2017-05-05T01:14:00.303Z,76.98
2017-05-05T01:15:00.295Z,76.98
2017-05-05T01:16:00.286Z,76.98
2017-05-05T01:17:00.281Z,76.98
2017-05-05T01:18:00.272Z,77.36
2017-05-05T01:19:00.263Z,77.36
2017-05-05T01:20:00.254Z,77.45
2017-05-05T01:21:00.243Z,77.36
2017-05-05T01:21:59.932Z,77.45
2017-05-05T01:23:00.229Z,77.45
2017-05-05T01:24:00.221Z,77.07
2017-05-05T01:25:00.215Z,76.88
2017-05-05T01:26:00.202Z,77.36
2017-05-05T01:27:00.195Z,77.36
2017-05-05T01:27:59.886Z,77.55
2017-05-05T01:29:00.177Z,77.36
2017-05-05T01:29:59.866Z,77.26
2017-05-05T01:31:00.163Z,76.98
2017-05-05T01:32:00.154Z,77.07
2017-05-05T01:32:59.844Z,76.98
2017-05-05T01:34:00.143Z,77.17
2017-05-05T01:35:00.129Z,77.07
2017-05-05T01:36:00.121Z,76.59
2017-05-05T01:36:59.810Z,76.88
2017-05-05T01:37:59.804Z,77.07
2017-05-05T01:39:00.097Z,76.59
2017-05-05T01:40:00.338Z,76.88
2017-05-05T01:41:00.079Z,76.59
2017-05-05T01:42:00.071Z,76.88
2017-05-05T01:43:00.064Z,76.69
2017-05-05T01:44:00.056Z,77.74
2017-05-05T01:44:59.995Z,77.74
2017-05-05T01:46:00.040Z,76.98
2017-05-05T01:46:59.726Z,77.17
2017-05-05T01:48:00.021Z,77.07
2017-05-05T01:49:00.014Z,77.17
2017-05-05T01:50:00.309Z,77.36
2017-05-05T01:50:59.997Z,77.26
2017-05-05T01:51:59.687Z,77.36
2017-05-05T01:52:59.984Z,77.36
2017-05-05T01:53:59.972Z,77.36
2017-05-05T01:55:00.273Z,77.36
2017-05-05T01:55:59.958Z,76.79
2017-05-05T01:56:59.646Z,76.88
2017-05-05T01:57:59.939Z,76.59
2017-05-05T01:58:59.932Z,76.69
2017-05-05T02:00:00.225Z,76.88
2017-05-05T02:00:59.914Z,77.17
2017-05-05T02:01:59.907Z,76.88
2017-05-05T02:02:59.900Z,77.07
2017-05-05T02:03:59.890Z,76.98
2017-05-05T02:05:00.133Z,76.59
2017-05-05T02:05:59.571Z,76.69
2017-05-05T02:06:59.865Z,77.51
2017-05-05T02:07:59.878Z,76.4
2017-05-05T02:08:59.849Z,77.55
2017-05-05T02:10:00.141Z,76.75
2017-05-05T02:10:59.530Z,76.75
2017-05-05T02:11:59.824Z,76.75
2017-05-05T02:12:59.513Z,77.51
2017-05-05T02:13:59.808Z,77.83
2017-05-05T02:15:00.050Z,76.94
2017-05-05T02:15:59.790Z,76.75
2017-05-05T02:16:59.782Z,77.22
2017-05-05T02:17:59.473Z,77.32
2017-05-05T02:18:59.766Z,76.94
2017-05-05T02:20:00.007Z,77.13
2017-05-05T02:20:59.446Z,77.22
2017-05-05T02:21:59.439Z,77.51
2017-05-05T02:22:59.733Z,77.26
2017-05-05T02:23:59.725Z,77.32
2017-05-05T02:24:59.966Z,77.32
2017-05-05T02:25:59.706Z,77.55
2017-05-05T02:26:59.698Z,77.36
2017-05-05T02:27:59.691Z,77.26
2017-05-05T02:28:59.681Z,77.36
2017-05-05T02:30:00.026Z,77.32
2017-05-05T02:30:59.664Z,77.7
2017-05-05T02:31:59.682Z,76.98
2017-05-05T02:32:59.650Z,77.32
2017-05-05T02:33:59.643Z,77.42
2017-05-05T02:34:59.882Z,77.32
2017-05-05T02:35:59.624Z,76.98
2017-05-05T02:36:59.616Z,76.98
2017-05-05T02:37:59.611Z,77.17
2017-05-05T02:38:59.602Z,77.32
2017-05-05T02:39:59.891Z,77.36
2017-05-05T02:40:59.592Z,77.36
2017-05-05T02:41:59.577Z,77.32
2017-05-05T02:42:59.568Z,77.36
2017-05-05T02:43:59.561Z,77.55
2017-05-05T02:44:59.547Z,77.36
2017-05-05T02:45:59.546Z,77.36
2017-05-05T02:46:59.533Z,77.36
2017-05-05T02:47:59.527Z,77.07
2017-05-05T02:48:59.519Z,76.98
2017-05-05T02:49:59.761Z,77.17
2017-05-05T02:50:59.501Z,76.75
2017-05-05T02:51:59.495Z,76.88
2017-05-05T02:52:59.485Z,76.98
2017-05-05T02:53:59.478Z,76.88
2017-05-05T02:54:59.773Z,77.07
2017-05-05T02:55:59.459Z,77.17
2017-05-05T02:56:59.450Z,76.59
2017-05-05T02:57:59.445Z,77.42
2017-05-05T02:58:59.437Z,76.56
2017-05-05T02:59:59.728Z,77.36
2017-05-05T03:00:59.420Z,77.32
2017-05-05T03:01:59.412Z,77.51
2017-05-05T03:02:59.404Z,77.51
2017-05-05T03:03:59.393Z,76.79
2017-05-05T03:04:59.687Z,77.22
2017-05-05T03:05:59.380Z,77.03
2017-05-05T03:06:59.367Z,76.69
2017-05-05T03:07:59.363Z,77.45
2017-05-05T03:08:59.351Z,77.36
2017-05-05T03:09:59.597Z,77.55
2017-05-05T03:10:59.335Z,77.55
2017-05-05T03:11:59.326Z,77.26
2017-05-05T03:12:59.322Z,77.36
2017-05-05T03:13:59.310Z,77.36
2017-05-05T03:14:59.000Z,77.36
2017-05-05T03:15:59.298Z,77.36
2017-05-05T03:16:59.288Z,76.69
2017-05-05T03:17:59.277Z,77.36
2017-05-05T03:18:59.271Z,77.07
2017-05-05T03:19:59.263Z,77.26
2017-05-05T03:20:59.254Z,77.55
2017-05-05T03:21:59.270Z,76.4
2017-05-05T03:22:59.235Z,77.17
2017-05-05T03:23:59.230Z,77.26
2017-05-05T03:24:59.222Z,76.88
2017-05-05T03:25:59.212Z,77.07
2017-05-05T03:26:59.204Z,76.5
2017-05-05T03:27:59.195Z,77.17
2017-05-05T03:28:59.188Z,77.26
2017-05-05T03:29:59.185Z,76.98
2017-05-05T03:30:59.174Z,76.88
2017-05-05T03:31:59.168Z,76.79
2017-05-05T03:32:59.155Z,76.59
2017-05-05T03:33:59.161Z,76.79
2017-05-05T03:34:59.141Z,76.88
2017-05-05T03:35:59.133Z,77.26
2017-05-05T03:36:59.125Z,76.98
2017-05-05T03:37:59.114Z,77.07
2017-05-05T03:38:59.115Z,76.69
2017-05-05T03:39:59.100Z,76.69
2017-05-05T03:40:59.092Z,76.69
2017-05-05T03:41:59.082Z,76.79
2017-05-05T03:42:59.074Z,77.17
2017-05-05T03:43:59.066Z,77.07
2017-05-05T03:44:59.063Z,77.07
2017-05-05T03:45:59.050Z,77.45
2017-05-05T03:46:59.041Z,77.45
2017-05-05T03:47:59.034Z,76.98
2017-05-05T03:48:59.027Z,77.17
2017-05-05T03:49:59.018Z,77.36
2017-05-05T03:50:59.011Z,76.98
2017-05-05T03:51:59.000Z,77.17
2017-05-05T03:52:58.994Z,76.98
2017-05-05T03:53:58.987Z,76.98
2017-05-05T03:54:58.980Z,77.17
2017-05-05T03:55:58.971Z,77.26
2017-05-05T03:56:58.963Z,76.98
2017-05-05T03:57:58.954Z,77.36
2017-05-05T03:58:58.945Z,77.36
2017-05-05T03:59:58.938Z,77.17
2017-05-05T04:00:58.928Z,77.45
2017-05-05T04:01:58.921Z,77.26
2017-05-05T04:02:58.911Z,77.17
2017-05-05T04:03:58.904Z,76.79
2017-05-05T04:04:58.897Z,77.26
2017-05-05T04:05:58.888Z,77.36
2017-05-05T04:06:58.882Z,77.36
2017-05-05T04:07:58.875Z,76.88
2017-05-05T04:08:58.866Z,76.79
2017-05-05T04:09:58.861Z,77.17
2017-05-05T04:10:58.851Z,77.36
2017-05-05T04:11:58.842Z,77.26
2017-05-05T04:12:58.832Z,77.01
2017-05-05T04:13:58.827Z,76.92
2017-05-05T04:14:58.820Z,77.2
2017-05-05T04:15:58.813Z,77.4
2017-05-05T04:16:58.802Z,77.59
2017-05-05T04:17:58.793Z,76.64
2017-05-05T04:18:58.786Z,76.92
2017-05-05T04:19:58.779Z,76.82
2017-05-05T04:20:58.771Z,77.2
2017-05-05T04:21:58.761Z,77.01
2017-05-05T04:22:58.756Z,76.92
2017-05-05T04:23:58.754Z,76.73
2017-05-05T04:24:58.739Z,76.82
2017-05-05T04:25:58.736Z,77.3
2017-05-05T04:26:58.725Z,76.64
2017-05-05T04:27:58.718Z,76.92
2017-05-05T04:28:58.708Z,77.11
2017-05-05T04:29:58.705Z,76.92
2017-05-05T04:30:58.692Z,77.4
2017-05-05T04:31:58.688Z,76.73
2017-05-05T04:32:58.679Z,76.73
2017-05-05T04:33:58.672Z,76.64
2017-05-05T04:34:58.668Z,77.01
2017-05-05T04:35:58.654Z,77.01
2017-05-05T04:36:58.646Z,76.54
2017-05-05T04:37:58.641Z,76.54
2017-05-05T04:38:58.631Z,76.73
2017-05-05T04:39:58.625Z,76.73
2017-05-05T04:40:58.617Z,76.44
2017-05-05T04:41:58.610Z,76.4
2017-05-05T04:42:58.600Z,76.59
2017-05-05T04:43:58.596Z,76.5
2017-05-05T04:44:58.585Z,76.82
2017-05-05T04:45:58.577Z,76.69
2017-05-05T04:46:58.569Z,76.59
2017-05-05T04:47:58.566Z,76.59
2017-05-05T04:48:58.555Z,76.5
2017-05-05T04:49:58.553Z,77.26
2017-05-05T04:50:58.538Z,76.88
2017-05-05T04:51:58.532Z,77.07
2017-05-05T04:52:58.522Z,77.17
2017-05-05T04:53:58.515Z,77.4
2017-05-05T04:54:58.511Z,77.2
2017-05-05T04:55:58.500Z,77.17
2017-05-05T04:56:58.491Z,77.26
2017-05-05T04:57:58.484Z,77.4
2017-05-05T04:58:58.482Z,77.3
2017-05-05T04:59:58.470Z,76.82
2017-05-05T05:00:58.461Z,76.88
2017-05-05T05:01:58.456Z,76.88
2017-05-05T05:02:58.448Z,77.11
2017-05-05T05:03:58.438Z,76.98
2017-05-05T05:04:58.430Z,77.07
2017-05-05T05:05:58.424Z,76.98
2017-05-05T05:06:58.417Z,76.69
2017-05-05T05:07:58.408Z,77.17
2017-05-05T05:08:58.409Z,76.88
2017-05-05T05:09:58.392Z,76.98
2017-05-05T05:10:58.384Z,76.88
2017-05-05T05:11:58.375Z,76.88
2017-05-05T05:12:58.374Z,76.98
2017-05-05T05:13:58.366Z,76.98
2017-05-05T05:14:58.358Z,76.88
2017-05-05T05:15:58.044Z,76.59
2017-05-05T05:16:58.037Z,76.79
2017-05-05T05:17:58.334Z,77.26
2017-05-05T05:18:58.325Z,76.88
2017-05-05T05:19:58.322Z,77.17
2017-05-05T05:20:58.308Z,77.36
2017-05-05T05:21:57.999Z,77.45
2017-05-05T05:22:58.293Z,77.26
2017-05-05T05:23:57.982Z,77.17
2017-05-05T05:24:57.975Z,76.73
2017-05-05T05:25:58.270Z,77.26
2017-05-05T05:26:57.961Z,77.07
2017-05-05T05:27:57.953Z,77.49
2017-05-05T05:28:57.945Z,77.2
2017-05-05T05:29:57.936Z,76.82
2017-05-05T05:30:58.233Z,76.64
2017-05-05T05:31:58.223Z,76.82
2017-05-05T05:32:58.217Z,77.11
2017-05-05T05:33:58.212Z,77.4
2017-05-05T05:34:58.203Z,77.59
2017-05-05T05:35:58.193Z,77.2
2017-05-05T05:36:58.185Z,77.2
2017-05-05T05:37:58.181Z,77.01
2017-05-05T05:38:58.170Z,76.82
2017-05-05T05:39:58.165Z,77.3
2017-05-05T05:40:58.156Z,77.01
2017-05-05T05:41:58.147Z,77.49
2017-05-05T05:42:58.143Z,77.3
2017-05-05T05:43:58.135Z,76.64
2017-05-05T05:44:58.125Z,77.2
2017-05-05T05:45:58.470Z,76.92
2017-05-05T05:46:58.111Z,77.2
2017-05-05T05:47:58.105Z,76.64
2017-05-05T05:48:58.098Z,76.73
2017-05-05T05:49:58.133Z,77.2
2017-05-05T05:50:58.029Z,76.73
2017-05-05T05:51:58.076Z,76.73
2017-05-05T05:52:58.069Z,76.54
2017-05-05T05:53:58.061Z,76.82
2017-05-05T05:54:58.055Z,76.86
2017-05-05T05:55:57.993Z,76.96
2017-05-05T05:56:58.037Z,76.48
2017-05-05T05:57:58.033Z,76.96
2017-05-05T05:58:58.023Z,77.44
2017-05-05T05:59:58.018Z,77.53
2017-05-05T06:00:58.007Z,77.15
2017-05-05T06:01:58.005Z,77.34
2017-05-05T06:02:57.998Z,76.67
2017-05-05T06:03:57.991Z,76.86
2017-05-05T06:04:57.981Z,76.57
2017-05-05T06:05:58.274Z,77.06
2017-05-05T06:06:57.967Z,76.67
2017-05-05T06:07:57.990Z,76.77
2017-05-05T06:08:57.953Z,76.62
2017-05-05T06:09:57.946Z,76.9
2017-05-05T06:10:58.189Z,76.81
2017-05-05T06:11:57.931Z,76.62
2017-05-05T06:12:57.927Z,76.81
2017-05-05T06:13:57.617Z,76.9
2017-05-05T06:14:57.916Z,76.9
2017-05-05T06:15:58.209Z,76.62
2017-05-05T06:16:57.899Z,76.42
2017-05-05T06:17:57.895Z,76.14
2017-05-05T06:18:57.887Z,76.71
2017-05-05T06:19:57.878Z,76.14
2017-05-05T06:20:58.172Z,76.71
2017-05-05T06:21:57.865Z,76.33
2017-05-05T06:22:57.865Z,76.9
2017-05-05T06:23:57.852Z,76.33
2017-05-05T06:24:57.847Z,75.66
2017-05-05T06:25:57.835Z,76.42
2017-05-05T06:26:57.832Z,76.23
2017-05-05T06:27:57.828Z,75.95
2017-05-05T06:28:57.822Z,76.14
2017-05-05T06:29:57.818Z,75.85
2017-05-05T06:30:58.109Z,75.66
2017-05-05T06:31:57.802Z,75.95
2017-05-05T06:32:57.797Z,75.57
2017-05-05T06:33:57.795Z,75.95
2017-05-05T06:34:57.782Z,75.81
2017-05-05T06:35:58.077Z,75.76
2017-05-05T06:36:57.773Z,75.85
2017-05-05T06:37:57.763Z,75.95
2017-05-05T06:38:57.760Z,75.85
2017-05-05T06:39:57.755Z,75.95
2017-05-05T06:40:58.045Z,76.42
2017-05-05T06:41:57.738Z,75.85
2017-05-05T06:42:57.732Z,76.23
2017-05-05T06:43:57.725Z,75.95
2017-05-05T06:44:57.726Z,76.14
2017-05-05T06:45:57.964Z,76.62
2017-05-05T06:46:57.710Z,76.71
2017-05-05T06:47:57.702Z,76.62
2017-05-05T06:48:57.697Z,75.95
2017-05-05T06:49:57.688Z,75.57
2017-05-05T06:50:57.931Z,75.57
2017-05-05T06:51:57.676Z,76.23
2017-05-05T06:52:57.671Z,76.04
2017-05-05T06:53:57.662Z,75.95
2017-05-05T06:54:57.661Z,76.33
2017-05-05T06:55:57.950Z,76.33
2017-05-05T06:56:57.645Z,76.42
2017-05-05T06:57:57.638Z,76.62
2017-05-05T06:58:57.632Z,76.33
2017-05-05T06:59:57.627Z,76.52
2017-05-05T07:00:57.869Z,76.33
2017-05-05T07:01:57.611Z,76.04
2017-05-05T07:02:57.609Z,75.85
2017-05-05T07:03:57.602Z,75.85
2017-05-05T07:04:57.596Z,76.33
2017-05-05T07:05:57.836Z,76.27
2017-05-05T07:06:57.582Z,76.56
2017-05-05T07:07:57.578Z,76.46
2017-05-05T07:08:57.570Z,75.79
2017-05-05T07:09:57.563Z,75.89
2017-05-05T07:10:57.865Z,75.98
2017-05-05T07:11:57.550Z,76.46
2017-05-05T07:12:57.543Z,76.46
2017-05-05T07:13:57.539Z,76.46
2017-05-05T07:14:57.537Z,75.98
2017-05-05T07:15:57.775Z,75.98
2017-05-05T07:16:57.520Z,76.27
2017-05-05T07:17:57.515Z,76.08
2017-05-05T07:18:57.206Z,76.37
2017-05-05T07:19:57.202Z,76.46
2017-05-05T07:20:57.748Z,76.27
2017-05-05T07:21:57.491Z,75.89
2017-05-05T07:22:57.485Z,76.46
2017-05-05T07:23:57.480Z,76.46
2017-05-05T07:24:57.473Z,75.89
2017-05-05T07:25:57.416Z,75.7
2017-05-05T07:26:57.466Z,75.79
2017-05-05T07:27:57.460Z,76.18
2017-05-05T07:28:57.461Z,76.27
2017-05-05T07:29:57.454Z,76.27
2017-05-05T07:30:57.436Z,75.6
2017-05-05T07:31:57.431Z,75.89
2017-05-05T07:32:57.428Z,75.83
2017-05-05T07:33:57.419Z,76.18
2017-05-05T07:34:57.415Z,75.51
2017-05-05T07:35:57.661Z,75.79
2017-05-05T07:36:57.403Z,75.89
2017-05-05T07:37:57.095Z,75.7
2017-05-05T07:38:57.392Z,75.7
2017-05-05T07:39:57.387Z,76.08
2017-05-05T07:40:57.682Z,75.51
2017-05-05T07:41:57.373Z,76.08
2017-05-05T07:42:57.368Z,75.98
2017-05-05T07:43:57.363Z,75.79
2017-05-05T07:44:57.356Z,75.7
2017-05-05T07:45:57.652Z,76.69
2017-05-05T07:46:57.346Z,75.93
2017-05-05T07:47:57.341Z,76.12
2017-05-05T07:48:57.335Z,76.21
2017-05-05T07:49:57.328Z,76.31
2017-05-05T07:50:57.573Z,76.21
2017-05-05T07:51:57.316Z,75.74
2017-05-05T07:52:57.311Z,75.74
2017-05-05T07:53:57.309Z,76.31
2017-05-05T07:54:57.306Z,76.12
2017-05-05T07:55:57.596Z,75.45
2017-05-05T07:56:57.289Z,76.31
2017-05-05T07:57:56.986Z,75.83
2017-05-05T07:58:57.280Z,76.12
2017-05-05T07:59:57.276Z,76.21
2017-05-05T08:00:57.518Z,76.25
2017-05-05T08:01:57.265Z,76.54
2017-05-05T08:02:57.265Z,76.64
2017-05-05T08:03:57.254Z,76.82
2017-05-05T08:04:57.249Z,76.48
2017-05-05T08:05:57.494Z,75.81
2017-05-05T08:06:57.238Z,75.71
2017-05-05T08:07:57.232Z,75.34
2017-05-05T08:08:57.230Z,76
2017-05-05T08:09:57.224Z,74.73
2017-05-05T08:10:57.469Z,75.49
2017-05-05T08:11:57.214Z,75.43
2017-05-05T08:12:57.209Z,75.96
2017-05-05T08:13:57.205Z,75.87
2017-05-05T08:14:56.899Z,76.16
2017-05-05T08:15:56.890Z,75.71
2017-05-05T08:16:57.189Z,75.91
2017-05-05T08:17:57.188Z,76.2
2017-05-05T08:18:57.179Z,76.1
2017-05-05T08:19:57.177Z,76.39
2017-05-05T08:20:56.870Z,76.2
2017-05-05T08:21:57.167Z,75.91
2017-05-05T08:22:57.162Z,76.1
2017-05-05T08:23:57.163Z,76.29
2017-05-05T08:24:57.160Z,76.48
2017-05-05T08:25:57.148Z,76.86
2017-05-05T08:26:57.142Z,76.86
2017-05-05T08:27:57.137Z,76.42
2017-05-05T08:28:57.133Z,76.52
2017-05-05T08:29:57.130Z,76.33
2017-05-05T08:30:57.124Z,75.66
2017-05-05T08:31:57.120Z,75.71
2017-05-05T08:32:57.116Z,75.34
2017-05-05T08:33:56.807Z,75.52
2017-05-05T08:34:56.803Z,76
2017-05-05T08:35:57.100Z,75.81
2017-05-05T08:36:57.097Z,76
2017-05-05T08:37:57.093Z,75.81
2017-05-05T08:38:56.784Z,75.05
2017-05-05T08:39:57.083Z,75.37
2017-05-05T08:40:56.776Z,75.62
2017-05-05T08:41:57.074Z,75.52
2017-05-05T08:42:57.076Z,75.24
2017-05-05T08:43:57.062Z,75.24
2017-05-05T08:44:57.060Z,75.14
2017-05-05T08:45:57.059Z,75.62
2017-05-05T08:46:57.050Z,75.52
2017-05-05T08:47:57.044Z,76
2017-05-05T08:48:57.043Z,75.81
2017-05-05T08:49:57.037Z,75.52
2017-05-05T08:50:57.031Z,75.52
2017-05-05T08:51:57.030Z,75.62
2017-05-05T08:52:57.024Z,75.81
2017-05-05T08:53:57.022Z,76
2017-05-05T08:54:56.713Z,76.1
2017-05-05T08:55:57.010Z,76.1
2017-05-05T08:56:57.005Z,76.33
2017-05-05T08:57:57.011Z,76.33
2017-05-05T08:58:56.997Z,76.62
2017-05-05T08:59:56.995Z,76.42
2017-05-05T09:00:56.988Z,76.42
2017-05-05T09:01:56.988Z,76.52
2017-05-05T09:02:56.980Z,76.62
2017-05-05T09:03:56.975Z,76.84
2017-05-05T09:04:56.970Z,76.84
2017-05-05T09:05:56.967Z,77.04
2017-05-05T09:06:56.964Z,77.51
2017-05-05T09:07:56.959Z,77.75
2017-05-05T09:08:56.956Z,78.42
2017-05-05T09:09:56.950Z,78.36
2017-05-05T09:10:56.953Z,78.78
2017-05-05T09:11:56.949Z,78.69
2017-05-05T09:12:56.636Z,79.01
2017-05-05T09:13:56.636Z,78.92
2017-05-05T09:14:56.934Z,79.34
2017-05-05T09:15:56.931Z,78.96
2017-05-05T09:16:56.927Z,79.47
2017-05-05T09:17:56.929Z,78.42
2017-05-05T09:18:56.621Z,78.42
2017-05-05T09:19:56.925Z,78.32
2017-05-05T09:20:56.921Z,78.17
2017-05-05T09:21:56.920Z,77.98
2017-05-05T09:22:56.918Z,77.88
2017-05-05T09:23:56.915Z,77.63
2017-05-05T09:24:56.914Z,76.67
2017-05-05T09:25:56.911Z,76
2017-05-05T09:26:56.910Z,75.48
2017-05-05T09:27:56.911Z,75
2017-05-05T09:28:56.910Z,73.94
2017-05-05T09:29:56.908Z,73.62
2017-05-05T09:30:56.906Z,73.81
2017-05-05T09:31:56.905Z,74.58
2017-05-05T09:32:56.904Z,74.58
2017-05-05T09:33:56.907Z,74.01
2017-05-05T09:34:56.901Z,74.29
2017-05-05T09:35:56.900Z,74.19
2017-05-05T09:36:56.899Z,74.1
2017-05-05T09:37:56.898Z,73.72
2017-05-05T09:38:56.897Z,74.1
2017-05-05T09:39:56.893Z,74.58
2017-05-05T09:40:56.891Z,74.73
2017-05-05T09:41:56.888Z,74.73
2017-05-05T09:42:56.889Z,74.77
2017-05-05T09:43:56.884Z,75.06
2017-05-05T09:44:56.883Z,75.15
2017-05-05T09:45:56.881Z,74.96
2017-05-05T09:46:56.881Z,75.25
2017-05-05T09:47:56.876Z,74.68
2017-05-05T09:48:56.875Z,74.96
2017-05-05T09:49:56.871Z,75.15
2017-05-05T09:50:56.869Z,74.64
2017-05-05T09:51:56.563Z,74.44
2017-05-05T09:52:56.561Z,74.35
2017-05-05T09:53:56.559Z,74.54
2017-05-05T09:54:56.860Z,74.73
2017-05-05T09:55:56.856Z,75.21
2017-05-05T09:56:56.854Z,75.6
2017-05-05T09:57:56.854Z,75.54
2017-05-05T09:58:56.850Z,75.45
2017-05-05T09:59:56.855Z,75.63
2017-05-05T10:00:56.846Z,75.25
2017-05-05T10:01:56.843Z,75.63
2017-05-05T10:02:56.842Z,75.54
2017-05-05T10:03:56.840Z,75.35
2017-05-05T10:04:56.836Z,74.96
2017-05-05T10:05:56.833Z,74.68
2017-05-05T10:06:56.830Z,74.87
2017-05-05T10:07:56.829Z,74.58
2017-05-05T10:08:56.825Z,73.97
2017-05-05T10:09:56.525Z,74.44
2017-05-05T10:10:56.820Z,74.73
2017-05-05T10:11:56.818Z,74.83
2017-05-05T10:12:56.818Z,75.12
2017-05-05T10:13:56.814Z,74.93
2017-05-05T10:14:56.814Z,74.93
2017-05-05T10:15:56.807Z,74.54
2017-05-05T10:16:56.805Z,74.64
2017-05-05T10:17:56.811Z,74.44
2017-05-05T10:18:56.800Z,74.73
2017-05-05T10:19:56.800Z,74.64
2017-05-05T10:20:56.854Z,74.73
2017-05-05T10:21:56.792Z,75.02
2017-05-05T10:22:56.790Z,75.31
2017-05-05T10:23:56.785Z,76.07
2017-05-05T10:24:56.785Z,75.79
2017-05-05T10:25:56.780Z,75.6
2017-05-05T10:26:56.779Z,75.98
2017-05-05T10:27:56.776Z,75.5
2017-05-05T10:28:56.778Z,75.4
2017-05-05T10:29:56.771Z,75.4
2017-05-05T10:30:56.770Z,75.5
2017-05-05T10:31:56.769Z,75.98
2017-05-05T10:32:56.764Z,75.31
2017-05-05T10:33:56.769Z,75.4
2017-05-05T10:34:56.759Z,75.5
2017-05-05T10:35:56.754Z,75.31
2017-05-05T10:36:56.756Z,74.93
2017-05-05T10:37:56.749Z,75.21
2017-05-05T10:38:56.777Z,74.83
2017-05-05T10:39:56.744Z,75.98
2017-05-05T10:40:56.739Z,75.21
2017-05-05T10:41:56.739Z,75.12
2017-05-05T10:42:56.735Z,75.02
2017-05-05T10:43:56.732Z,74.73
2017-05-05T10:44:56.731Z,74.73
2017-05-05T10:45:56.729Z,75.18
2017-05-05T10:46:56.722Z,74.89
2017-05-05T10:47:56.720Z,74.89
2017-05-05T10:48:56.740Z,75.75
2017-05-05T10:49:56.717Z,75.56
2017-05-05T10:50:56.711Z,76.14
2017-05-05T10:51:56.743Z,75.4
2017-05-05T10:52:56.705Z,74.69
2017-05-05T10:53:56.705Z,74.69
2017-05-05T10:54:56.702Z,74.6
2017-05-05T10:55:56.695Z,73.16
2017-05-05T10:56:56.694Z,71.05
2017-05-05T10:57:56.691Z,72.74
2017-05-05T10:58:56.387Z,73.13
2017-05-05T10:59:56.688Z,73.9
2017-05-05T11:00:56.378Z,74.47
2017-05-05T11:01:56.680Z,73.61
2017-05-05T11:02:56.677Z,74.27
2017-05-05T11:03:56.672Z,74.57
2017-05-05T11:04:56.671Z,74.08
2017-05-05T11:05:56.672Z,74.85
2017-05-05T11:06:56.365Z,74.95
2017-05-05T11:07:56.665Z,75.71
2017-05-05T11:08:56.661Z,75.71
2017-05-05T11:09:56.653Z,76.19
2017-05-05T11:10:56.651Z,75.9
2017-05-05T11:11:56.652Z,76.14
2017-05-05T11:12:56.649Z,76.14
2017-05-05T11:13:56.641Z,76.62
2017-05-05T11:14:56.640Z,76.23
2017-05-05T11:15:56.638Z,75.95
2017-05-05T11:16:56.332Z,76.04
2017-05-05T11:17:56.630Z,76.14
2017-05-05T11:18:56.629Z,76.42
2017-05-05T11:19:56.624Z,76.52
2017-05-05T11:20:56.322Z,76.56
2017-05-05T11:21:56.619Z,76.56
2017-05-05T11:22:56.617Z,76.07
2017-05-05T11:23:56.612Z,75.98
2017-05-05T11:24:56.611Z,75.89
2017-05-05T11:25:56.605Z,76.27
2017-05-05T11:26:56.608Z,76.56
2017-05-05T11:27:56.601Z,76.46
2017-05-05T11:28:56.600Z,76.07
2017-05-05T11:29:56.595Z,75.4
2017-05-05T11:30:56.593Z,75.31
2017-05-05T11:31:56.589Z,75.79
2017-05-05T11:32:56.588Z,75.21
2017-05-05T11:33:56.585Z,75.89
2017-05-05T11:34:56.580Z,75.89
2017-05-05T11:35:56.578Z,76.37
2017-05-05T11:36:56.576Z,75.79
2017-05-05T11:37:56.577Z,76.27
2017-05-05T11:38:56.573Z,77.04
2017-05-05T11:39:56.567Z,76.5
2017-05-05T11:40:56.574Z,76.79
2017-05-05T11:41:56.569Z,76.98
2017-05-05T11:42:56.563Z,77.08
2017-05-05T11:43:56.559Z,76.92
2017-05-05T11:44:56.556Z,76.92
2017-05-05T11:45:56.581Z,77.11
2017-05-05T11:46:56.551Z,76.54
2017-05-05T11:47:56.551Z,76.06
2017-05-05T11:48:56.549Z,76.34
2017-05-05T11:49:56.563Z,75.87
2017-05-05T11:50:56.542Z,76.54
2017-05-05T11:51:56.542Z,76.73
2017-05-05T11:52:56.546Z,76.54
2017-05-05T11:53:56.233Z,74.33
2017-05-05T11:54:56.561Z,73.18
2017-05-05T11:55:56.533Z,73.27
2017-05-05T11:56:56.531Z,73.14
2017-05-05T11:57:56.529Z,73.52
2017-05-05T11:58:56.227Z,72.56
2017-05-05T11:59:56.527Z,73.52
2017-05-05T12:00:56.525Z,73.91
2017-05-05T12:01:56.525Z,74.1
2017-05-05T12:02:56.519Z,74.29
2017-05-05T12:03:56.519Z,74.44
2017-05-05T12:04:56.517Z,74.58
2017-05-05T12:05:56.517Z,74.77
2017-05-05T12:06:56.512Z,74.26
2017-05-05T12:07:56.511Z,74.06
2017-05-05T12:08:56.211Z,73.77
2017-05-05T12:09:56.507Z,73.77
2017-05-05T12:10:56.505Z,73.87
2017-05-05T12:11:56.508Z,72.91
2017-05-05T12:12:56.500Z,74.12
2017-05-05T12:13:56.498Z,73.55
2017-05-05T12:14:56.500Z,74.41
2017-05-05T12:15:56.495Z,74.6
2017-05-05T12:16:56.491Z,75.18
2017-05-05T12:17:56.490Z,74.79
2017-05-05T12:18:56.484Z,74.98
2017-05-05T12:19:56.484Z,74.98
2017-05-05T12:20:56.482Z,75.18
2017-05-05T12:21:56.483Z,75.98
2017-05-05T12:22:56.475Z,74.98
2017-05-05T12:23:56.475Z,74.79
2017-05-05T12:24:56.470Z,74.79
2017-05-05T12:25:56.167Z,74.69
2017-05-05T12:26:56.465Z,74.51
2017-05-05T12:27:56.464Z,75.37
2017-05-05T12:28:56.462Z,75.18
2017-05-05T12:29:56.463Z,75.85
2017-05-05T12:30:56.454Z,76.17
2017-05-05T12:31:56.450Z,75.89
2017-05-05T12:32:56.150Z,75.89
2017-05-05T12:33:56.444Z,75.79
2017-05-05T12:34:56.139Z,75.89
2017-05-05T12:35:56.444Z,75.6
2017-05-05T12:36:56.437Z,75.5
2017-05-05T12:37:56.434Z,76.07
2017-05-05T12:38:56.433Z,75.89
2017-05-05T12:39:56.434Z,76.37
2017-05-05T12:40:56.428Z,75.98
2017-05-05T12:41:56.424Z,75.92
2017-05-05T12:42:56.421Z,76.02
2017-05-05T12:43:56.417Z,75.54
2017-05-05T12:44:56.417Z,76.12
2017-05-05T12:45:56.413Z,76.12
2017-05-05T12:46:56.409Z,75.82
2017-05-05T12:47:56.408Z,76.88
2017-05-05T12:48:56.406Z,76.5
2017-05-05T12:49:56.403Z,76.64
2017-05-05T12:50:56.401Z,76.64
2017-05-05T12:51:56.399Z,76.73
2017-05-05T12:52:56.394Z,76.44
2017-05-05T12:53:56.395Z,76.64
2017-05-05T12:54:56.390Z,76.77